Time;durP1;ratioP1;P1;durP2;ratioP2;P2;SDS_P1;SDS_P2;PMS_P1;PMS_P2;Temp;Humidity;BMP_temperature;BMP_pressure;BME280_temperature;BME280_humidity;BME280_pressure;Samples;Min_cycle;Max_cycle;Signal;HPM_P1;HPM_P2
2022/05/11 00:02:44;;;;;;;3.50;2.90;;;22.70;43.80;;;;;;7662127;23;20100;-70
2022/05/11 00:05:45;;;;;;;5.03;2.97;;;22.70;43.80;;;;;;7713277;23;20071;-70
2022/05/11 00:08:46;;;;;;;8.07;2.70;;;22.60;44.00;;;;;;7713940;23;20021;-70
2022/05/11 00:11:47;;;;;;;7.40;3.00;;;22.70;44.40;;;;;;7649951;23;20036;-70
2022/05/11 00:14:48;;;;;;;4.57;2.85;;;22.60;44.50;;;;;;7674193;23;20021;-70
2022/05/11 00:17:49;;;;;;;4.40;3.20;;;22.60;44.70;;;;;;7676180;23;20605;-70
2022/05/11 00:20:50;;;;;;;4.47;3.00;;;22.60;45.00;;;;;;7674832;23;20017;-70
2022/05/11 00:23:53;;;;;;;4.72;3.30;;;22.60;45.70;;;;;;7675023;23;20027;-69
2022/05/11 00:26:53;;;;;;;3.80;3.33;;;22.50;46.00;;;;;;7675078;23;20455;-69
2022/05/11 00:29:54;;;;;;;4.78;2.97;;;22.50;46.40;;;;;;7650734;23;20017;-69
2022/05/11 00:32:57;;;;;;;6.18;3.45;;;22.40;46.60;;;;;;7652380;23;20100;-70
2022/05/11 00:35:59;;;;;;;11.93;3.60;;;22.40;47.00;;;;;;7676429;23;20049;-69
2022/05/11 00:39:00;;;;;;;5.68;2.75;;;22.30;47.10;;;;;;7675875;23;20020;-70
2022/05/11 00:42:02;;;;;;;6.43;3.15;;;22.30;47.30;;;;;;7674769;23;20033;-70
2022/05/11 00:45:05;;;;;;;6.28;3.13;;;22.20;47.50;;;;;;7674284;23;20016;-70
2022/05/11 00:51:38;;;;;;;5.90;3.42;;;22.20;48.00;;;;;;7676098;23;20041;-70
2022/05/11 00:54:44;;;;;;;5.65;3.30;;;22.10;48.10;;;;;;7649683;23;20095;-72
2022/05/11 00:57:57;;;;;;;7.57;3.13;;;22.10;48.10;;;;;;7649741;23;20021;-70
2022/05/11 01:00:58;;;;;;;6.15;3.08;;;22.10;48.40;;;;;;7672122;23;20009;-69
2022/05/11 01:04:12;;;;;;;6.28;3.17;;;22.00;48.60;;;;;;7673979;23;20031;-70
2022/05/11 01:07:14;;;;;;;4.57;3.08;;;22.00;48.70;;;;;;7672298;23;20020;-70
2022/05/11 01:10:15;;;;;;;6.75;3.58;;;21.90;48.60;;;;;;7673877;23;20017;-71
2022/05/11 01:13:18;;;;;;;6.13;3.28;;;21.90;48.60;;;;;;7684771;23;20094;-71
2022/05/11 01:16:19;;;;;;;3.55;2.58;;;21.90;48.70;;;;;;7684398;23;20435;-71
2022/05/11 01:19:31;;;;;;;6.63;3.03;;;21.90;48.60;;;;;;7711131;23;20020;-70
2022/05/11 01:22:40;;;;;;;5.07;3.40;;;21.90;48.50;;;;;;7710094;23;20111;-70
2022/05/11 01:25:41;;;;;;;7.43;3.42;;;21.90;48.40;;;;;;7659601;23;20328;-69
2022/05/11 01:28:44;;;;;;;7.65;3.13;;;21.90;48.30;;;;;;7684239;23;20423;-69
2022/05/11 01:31:45;;;;;;;4.95;2.97;;;21.90;48.30;;;;;;7709644;23;20513;-70
2022/05/11 01:34:49;;;;;;;4.63;2.78;;;21.90;48.40;;;;;;7685292;23;20009;-69
2022/05/11 01:38:04;;;;;;;9.88;3.40;;;21.80;48.30;;;;;;7684449;23;20032;-69
2022/05/11 01:41:05;;;;;;;3.90;2.70;;;21.90;48.50;;;;;;7684657;23;20428;-69
2022/05/11 01:44:12;;;;;;;4.72;2.97;;;21.90;48.50;;;;;;7684365;23;20087;-71
2022/05/11 01:47:13;;;;;;;5.20;3.10;;;21.80;48.40;;;;;;7658798;23;20095;-70
2022/05/11 01:50:14;;;;;;;4.85;3.17;;;21.80;48.40;;;;;;7684258;23;20091;-70
2022/05/11 01:53:16;;;;;;;9.13;3.10;;;21.80;48.40;;;;;;7710632;23;20126;-71
2022/05/11 01:56:19;;;;;;;5.00;2.80;;;21.80;48.50;;;;;;7659693;23;20090;-70
2022/05/11 01:59:20;;;;;;;8.30;3.22;;;21.80;48.90;;;;;;7709819;23;20027;-70
2022/05/11 02:02:21;;;;;;;4.63;2.92;;;21.70;49.00;;;;;;7683742;23;20021;-71
2022/05/11 02:08:43;;;;;;;4.38;3.20;;;21.60;49.00;;;;;;7683393;23;20043;-70
2022/05/11 02:11:44;;;;;;;4.80;3.10;;;21.60;49.60;;;;;;7708966;23;20070;-70
2022/05/11 02:14:45;;;;;;;3.35;2.83;;;21.50;49.00;;;;;;7683921;23;20020;-70
2022/05/11 02:17:46;;;;;;;4.78;3.33;;;21.40;49.10;;;;;;7683977;23;20027;-70
2022/05/11 02:20:47;;;;;;;4.82;3.28;;;21.40;49.20;;;;;;7683800;23;20023;-70
2022/05/11 02:23:50;;;;;;;4.35;2.88;;;21.30;49.20;;;;;;7660726;23;20304;-70
2022/05/11 02:26:51;;;;;;;4.13;3.00;;;21.30;49.40;;;;;;7653339;23;20428;-71
2022/05/11 02:29:52;;;;;;;7.05;3.38;;;21.20;49.50;;;;;;7673416;23;20028;-70
2022/05/11 02:32:53;;;;;;;6.78;3.30;;;21.20;49.60;;;;;;7678173;23;20139;-70
2022/05/11 02:35:54;;;;;;;7.70;3.70;;;21.20;49.60;;;;;;7677936;23;20100;-70
2022/05/11 02:38:55;;;;;;;8.75;3.38;;;21.10;49.80;;;;;;7671845;23;20405;-70
2022/05/11 02:41:56;;;;;;;5.78;3.47;;;21.10;49.90;;;;;;7672010;23;20017;-70
2022/05/11 02:44:57;;;;;;;4.95;3.40;;;21.10;50.00;;;;;;7672756;23;20532;-70
2022/05/11 02:47:58;;;;;;;5.43;3.45;;;21.10;50.00;;;;;;7673349;23;20024;-70
2022/05/11 02:51:00;;;;;;;4.97;2.95;;;21.00;50.20;;;;;;7674120;23;20013;-70
2022/05/11 02:54:01;;;;;;;7.82;3.30;;;21.00;50.20;;;;;;7646795;23;20019;-70
2022/05/11 02:57:02;;;;;;;4.93;2.97;;;21.00;50.10;;;;;;7684006;23;20013;-70
2022/05/11 03:00:06;;;;;;;8.40;4.03;;;21.00;50.10;;;;;;7683659;23;20030;-70
2022/05/11 03:03:07;;;;;;;4.65;3.53;;;20.90;50.00;;;;;;7708741;23;20020;-70
2022/05/11 03:06:08;;;;;;;3.72;2.78;;;20.90;50.10;;;;;;7661876;23;20012;-70
2022/05/11 03:09:09;;;;;;;5.38;3.78;;;20.80;50.10;;;;;;7674352;23;20013;-70
2022/05/11 03:12:12;;;;;;;5.88;3.70;;;20.80;50.20;;;;;;7700420;23;20091;-70
2022/05/11 03:15:13;;;;;;;8.18;4.15;;;20.80;50.40;;;;;;7712428;23;20107;-70
2022/05/11 03:18:14;;;;;;;7.88;4.03;;;20.80;50.50;;;;;;7688257;23;20031;-70
2022/05/11 03:21:15;;;;;;;8.55;4.22;;;20.70;50.50;;;;;;7713726;23;20016;-70
2022/05/11 03:24:17;;;;;;;6.68;4.40;;;20.70;50.50;;;;;;7712541;23;20051;-70
2022/05/11 03:27:18;;;;;;;15.20;4.15;;;20.70;50.50;;;;;;7686085;23;20027;-70
2022/05/11 03:30:20;;;;;;;7.88;3.47;;;20.70;50.60;;;;;;7685640;23;20017;-70
2022/05/11 03:36:41;;;;;;;8.10;4.28;;;20.60;50.60;;;;;;7646951;23;20028;-69
2022/05/11 03:39:43;;;;;;;9.65;4.95;;;20.60;50.70;;;;;;7647240;23;20014;-69
2022/05/11 03:42:44;;;;;;;10.00;4.60;;;20.60;50.80;;;;;;7647087;23;20025;-70
2022/05/11 03:45:45;;;;;;;9.90;5.38;;;20.60;51.00;;;;;;7672903;23;20028;-70
2022/05/11 03:48:46;;;;;;;9.35;5.32;;;20.60;51.30;;;;;;7646769;23;20025;-70
2022/05/11 03:51:48;;;;;;;9.07;4.88;;;20.60;51.30;;;;;;7673175;23;20475;-70
2022/05/11 03:54:49;;;;;;;14.05;5.05;;;20.60;51.30;;;;;;7622166;23;20013;-70
2022/05/11 03:57:50;;;;;;;9.57;4.63;;;20.50;51.30;;;;;;7671042;23;20024;-70
2022/05/11 04:00:52;;;;;;;5.97;3.97;;;20.60;51.40;;;;;;7646246;23;20121;-70
2022/05/11 04:03:53;;;;;;;4.80;3.70;;;20.60;51.40;;;;;;7621967;23;20024;-70
2022/05/11 04:06:53;;;;;;;7.18;3.97;;;20.60;51.40;;;;;;7644787;23;20013;-69
2022/05/11 04:09:54;;;;;;;10.63;4.68;;;20.60;51.40;;;;;;7646629;23;20021;-70
2022/05/11 04:12:55;;;;;;;6.28;3.15;;;20.60;51.40;;;;;;7652243;23;20156;-71
2022/05/11 04:15:56;;;;;;;9.35;4.28;;;20.50;51.40;;;;;;7671959;23;20013;-70
2022/05/11 04:18:57;;;;;;;5.93;3.20;;;20.50;51.30;;;;;;7631628;23;20024;-69
2022/05/11 04:21:58;;;;;;;6.85;4.03;;;20.50;51.40;;;;;;7646656;23;20028;-69
2022/05/11 04:24:59;;;;;;;10.55;4.18;;;20.40;51.70;;;;;;7646606;23;20017;-69
2022/05/11 04:28:02;;;;;;;6.43;4.07;;;20.40;51.80;;;;;;7672884;23;20017;-69
2022/05/11 04:31:08;;;;;;;9.85;4.30;;;20.40;51.90;;;;;;7683549;23;20036;-69
2022/05/11 04:34:11;;;;;;;6.45;4.00;;;20.40;51.90;;;;;;7682417;23;20019;-70
2022/05/11 04:37:12;;;;;;;12.13;4.00;;;20.40;52.00;;;;;;7685141;23;20017;-70
2022/05/11 04:40:15;;;;;;;9.48;3.85;;;20.40;52.20;;;;;;7685637;23;20152;-70
2022/05/11 04:43:16;;;;;;;6.68;3.55;;;20.30;52.20;;;;;;7648120;23;20447;-69
2022/05/11 04:46:18;;;;;;;5.30;3.33;;;20.30;52.40;;;;;;7666783;23;20036;-70
2022/05/11 04:49:19;;;;;;;7.43;4.03;;;20.30;52.50;;;;;;7648233;23;20025;-71
2022/05/11 04:52:20;;;;;;;10.10;3.45;;;20.30;52.50;;;;;;7666464;23;20079;-71
2022/05/11 04:55:21;;;;;;;7.32;3.50;;;20.30;52.50;;;;;;7685610;23;20088;-71
2022/05/11 04:58:22;;;;;;;5.45;3.30;;;20.30;52.60;;;;;;7670737;23;20416;-70
2022/05/11 05:01:24;;;;;;;7.63;3.30;;;20.30;52.60;;;;;;7660360;23;20475;-70
2022/05/11 05:04:27;;;;;;;7.95;3.83;;;20.30;52.50;;;;;;7658987;23;20115;-71
2022/05/11 05:07:28;;;;;;;5.65;3.35;;;20.30;52.60;;;;;;7658954;23;20436;-70
2022/05/11 05:10:29;;;;;;;5.60;3.10;;;20.30;52.60;;;;;;7648978;23;20032;-72
2022/05/11 05:13:30;;;;;;;4.95;3.13;;;20.30;52.70;;;;;;7673735;23;20017;-71
2022/05/11 05:16:33;;;;;;;6.03;3.55;;;20.30;52.70;;;;;;7648166;23;20058;-70
2022/05/11 05:19:35;;;;;;;9.10;4.03;;;20.30;52.60;;;;;;7636450;23;20460;-70
2022/05/11 05:22:37;;;;;;;7.38;3.05;;;20.30;52.70;;;;;;7672080;23;20159;-70
2022/05/11 05:25:38;;;;;;;4.22;3.20;;;20.30;52.70;;;;;;7672929;23;20105;-70
2022/05/11 05:31:58;;;;;;;5.03;3.55;;;20.20;52.90;;;;;;7645828;23;20023;-70
2022/05/11 05:35:00;;;;;;;7.43;3.45;;;20.20;53.10;;;;;;7633217;23;20324;-70
2022/05/11 05:38:03;;;;;;;6.78;3.83;;;20.10;53.30;;;;;;7632742;23;20013;-71
2022/05/11 05:41:06;;;;;;;6.93;3.53;;;20.10;53.40;;;;;;7647512;23;20037;-70
2022/05/11 05:44:07;;;;;;;14.52;4.28;;;20.10;53.60;;;;;;7646379;23;20021;-70
2022/05/11 05:47:08;;;;;;;7.30;4.55;;;20.10;53.70;;;;;;7622362;23;20017;-72
2022/05/11 05:50:10;;;;;;;9.75;4.15;;;20.10;53.80;;;;;;7623198;23;20028;-70
2022/05/11 05:53:11;;;;;;;13.68;4.30;;;20.10;53.80;;;;;;7647467;23;20028;-70
2022/05/11 05:56:14;;;;;;;8.00;4.07;;;20.10;53.70;;;;;;7646858;23;20028;-69
2022/05/11 05:59:16;;;;;;;12.55;5.03;;;20.20;53.70;;;;;;7670866;23;20017;-71
2022/05/11 06:02:17;;;;;;;19.02;4.53;;;20.20;53.70;;;;;;7622318;23;20463;-70
2022/05/11 06:05:17;;;;;;;13.50;5.00;;;20.30;53.60;;;;;;7631877;23;20017;-77
2022/05/11 06:08:23;;;;;;;20.63;4.72;;;20.30;53.60;;;;;;7632234;23;20009;-77
2022/05/11 06:11:24;;;;;;;10.40;4.70;;;20.40;53.70;;;;;;7650207;23;20065;-76
2022/05/11 06:14:24;;;;;;;9.45;4.78;;;20.50;53.50;;;;;;7622742;23;20017;-75
2022/05/11 06:17:25;;;;;;;13.45;4.88;;;20.60;53.30;;;;;;7646350;23;20005;-76
2022/05/11 06:20:26;;;;;;;10.27;5.18;;;20.60;53.00;;;;;;7671860;23;20324;-74
2022/05/11 06:23:27;;;;;;;8.05;4.30;;;20.70;52.90;;;;;;7671286;23;20027;-75
2022/05/11 06:26:28;;;;;;;11.95;4.72;;;20.70;52.70;;;;;;7645280;23;20387;-72
2022/05/11 06:29:29;;;;;;;11.20;4.53;;;20.80;52.60;;;;;;7634197;23;20436;-71
2022/05/11 06:32:30;;;;;;;12.27;4.63;;;20.90;52.50;;;;;;7645606;23;20029;-73
2022/05/11 06:35:31;;;;;;;8.10;4.18;;;21.00;52.40;;;;;;7632479;23;20100;-73
2022/05/11 06:38:34;;;;;;;12.30;4.15;;;21.10;52.10;;;;;;7609360;23;20057;-71
2022/05/11 06:41:36;;;;;;;8.80;3.88;;;21.20;51.80;;;;;;7633451;23;20660;-74
2022/05/11 06:44:39;;;;;;;11.10;3.90;;;21.30;51.50;;;;;;7635780;23;20133;-73
2022/05/11 06:47:40;;;;;;;6.45;3.85;;;21.40;51.20;;;;;;7628864;23;20088;-71
2022/05/11 06:50:42;;;;;;;15.38;4.40;;;21.50;51.00;;;;;;7671705;23;20079;-75
2022/05/11 07:00:23;;;;;;;10.40;4.63;;;21.90;50.00;;;;;;7672722;23;20048;-72
2022/05/11 07:03:24;;;;;;;7.07;4.20;;;21.90;49.80;;;;;;7643539;23;20164;-68
2022/05/11 07:06:25;;;;;;;10.15;3.97;;;22.00;49.70;;;;;;7671076;23;20504;-68
2022/05/11 07:09:28;;;;;;;7.30;3.63;;;22.10;49.60;;;;;;7645026;23;20436;-71
2022/05/11 07:12:35;;;;;;;7.60;3.80;;;22.30;49.30;;;;;;7636282;23;20048;-69
2022/05/11 07:15:36;;;;;;;6.85;3.58;;;22.50;48.90;;;;;;7619084;23;20412;-69
2022/05/11 07:18:36;;;;;;;7.93;3.15;;;22.60;48.50;;;;;;7666704;23;20017;-72
2022/05/11 07:21:37;;;;;;;8.80;3.80;;;22.70;48.20;;;;;;7668861;23;20013;-68
2022/05/11 07:24:40;;;;;;;9.32;3.67;;;22.90;48.00;;;;;;7667713;23;20028;-68
2022/05/11 07:27:43;;;;;;;7.70;4.07;;;23.00;47.70;;;;;;7667131;23;20538;-69
2022/05/11 07:30:47;;;;;;;5.30;3.30;;;23.10;47.20;;;;;;7669584;23;20028;-69
2022/05/11 07:33:48;;;;;;;7.70;3.88;;;23.30;47.00;;;;;;7669462;23;20012;-68
2022/05/11 07:36:54;;;;;;;6.50;3.13;;;23.40;46.50;;;;;;7669190;23;20316;-69
2022/05/11 07:39:56;;;;;;;6.57;3.40;;;23.50;46.20;;;;;;7670086;23;20325;-68
2022/05/11 07:42:59;;;;;;;6.82;3.90;;;23.70;45.80;;;;;;7670465;23;20020;-68
2022/05/11 07:46:00;;;;;;;7.93;3.78;;;23.80;45.50;;;;;;7669280;23;20092;-68
2022/05/11 07:49:03;;;;;;;6.88;3.35;;;23.90;45.20;;;;;;7645949;23;20021;-67
2022/05/11 07:52:05;;;;;;;8.75;3.03;;;24.00;45.00;;;;;;7672158;23;20136;-68
2022/05/11 07:55:07;;;;;;;8.90;3.85;;;24.10;45.00;;;;;;7671379;23;20017;-68
2022/05/11 08:01:32;;;;;;;11.40;6.22;;;24.30;44.40;;;;;;7633868;23;20017;-69
2022/05/11 08:04:33;;;;;;;6.40;3.40;;;24.50;44.10;;;;;;7634709;23;20341;-68
2022/05/11 08:07:40;;;;;;;4.28;3.30;;;24.60;43.70;;;;;;7643035;23;20028;-68
2022/05/11 08:10:44;;;;;;;6.60;3.45;;;24.70;43.50;;;;;;7665438;23;20104;-69
2022/05/11 08:13:45;;;;;;;6.80;3.70;;;24.80;43.60;;;;;;7645116;23;20125;-68
2022/05/11 08:16:51;;;;;;;5.40;3.22;;;24.90;43.30;;;;;;7645522;23;20017;-69
2022/05/11 08:19:52;;;;;;;6.50;3.60;;;25.10;42.90;;;;;;7671547;23;20027;-68
2022/05/11 08:22:53;;;;;;;6.10;3.83;;;25.10;42.40;;;;;;7669714;23;20021;-68
2022/05/11 08:25:57;;;;;;;6.50;3.08;;;25.20;42.30;;;;;;7646493;23;20387;-70
2022/05/11 08:28:58;;;;;;;11.45;3.60;;;25.30;42.30;;;;;;7645519;23;20028;-70
2022/05/11 08:35:19;;;;;;;7.63;3.30;;;25.40;42.00;;;;;;7671560;23;20017;-70
2022/05/11 08:38:22;;;;;;;7.05;3.42;;;25.50;41.80;;;;;;7645758;23;20577;-70
2022/05/11 08:41:37;;;;;;;4.65;3.25;;;25.60;41.80;;;;;;7670150;23;20032;-72
2022/05/11 08:44:43;;;;;;;4.78;2.97;;;25.60;41.40;;;;;;7618721;23;20063;-69
2022/05/11 08:47:48;;;;;;;7.40;3.72;;;25.70;41.40;;;;;;7645052;23;20013;-68
2022/05/11 08:50:55;;;;;;;10.95;3.97;;;25.80;41.30;;;;;;7645588;23;20151;-71
2022/05/11 08:54:08;;;;;;;10.35;5.85;;;25.80;41.20;;;;;;7645562;23;20413;-70
2022/05/11 08:57:17;;;;;;;7.93;3.60;;;25.90;41.00;;;;;;7671935;23;20017;-70
2022/05/11 09:00:19;;;;;;;5.43;3.38;;;26.00;40.60;;;;;;7643892;23;20324;-71
2022/05/11 09:03:39;;;;;;;6.53;3.65;;;26.20;40.50;;;;;;7645070;23;20044;-69
2022/05/11 09:06:43;;;;;;;6.97;3.30;;;26.20;40.00;;;;;;7695691;23;20305;-69
2022/05/11 09:09:45;;;;;;;7.28;3.70;;;26.30;39.80;;;;;;7580394;23;20362;-70
2022/05/11 09:12:46;;;;;;;12.77;3.50;;;26.40;39.60;;;;;;7670640;23;20028;-70
2022/05/11 09:15:55;;;;;;;6.47;3.00;;;26.50;39.40;;;;;;7672119;23;20028;-69
2022/05/11 09:18:56;;;;;;;4.00;3.08;;;26.70;39.30;;;;;;7695564;23;20423;-69
2022/05/11 09:22:17;;;;;;;8.07;2.70;;;26.80;38.70;;;;;;7672322;23;20021;-68
2022/05/11 09:25:22;;;;;;;5.50;3.25;;;26.90;38.40;;;;;;7609687;23;20031;-69
2022/05/11 09:28:28;;;;;;;3.35;2.40;;;27.00;38.10;;;;;;7635931;23;20072;-72
2022/05/11 09:31:29;;;;;;;8.82;3.15;;;27.00;37.80;;;;;;7642306;23;20009;-70
2022/05/11 09:34:36;;;;;;;7.75;3.10;;;27.10;37.60;;;;;;7643984;23;20020;-70
2022/05/11 09:37:37;;;;;;;6.43;3.05;;;27.10;37.30;;;;;;7623174;23;20025;-72
2022/05/11 09:40:57;;;;;;;4.60;2.63;;;27.20;37.10;;;;;;7645538;23;20005;-71
2022/05/11 09:43:58;;;;;;;3.88;3.03;;;27.30;36.80;;;;;;7608476;23;20409;-70
2022/05/11 09:47:00;;;;;;;8.00;3.05;;;27.40;36.50;;;;;;7607076;23;20077;-71
2022/05/11 09:50:23;;;;;;;8.25;3.58;;;27.50;36.40;;;;;;7669042;23;20009;-69
2022/05/11 09:53:35;;;;;;;5.07;3.30;;;27.50;36.10;;;;;;7668390;23;20525;-70
2022/05/11 09:56:38;;;;;;;8.93;3.25;;;27.70;35.80;;;;;;7670265;23;20424;-70
2022/05/11 09:59:49;;;;;;;6.22;3.70;;;27.70;35.70;;;;;;7669502;23;20048;-71
2022/05/11 10:02:54;;;;;;;5.00;2.70;;;27.80;35.50;;;;;;7643138;23;20020;-71
2022/05/11 10:05:56;;;;;;;6.68;3.22;;;27.90;35.50;;;;;;7665054;23;20107;-71
2022/05/11 10:08:59;;;;;;;7.55;2.90;;;27.90;35.50;;;;;;7664489;23;20017;-71
2022/05/11 10:12:01;;;;;;;5.30;3.10;;;28.00;35.50;;;;;;7639286;23;20431;-71
2022/05/11 10:22:16;;;;;;;9.73;3.10;;;28.20;35.30;;;;;;7681661;23;20016;-72
2022/05/11 10:25:21;;;;;;;9.98;3.22;;;28.30;35.40;;;;;;7678012;23;20067;-72
2022/05/11 10:28:54;;;;;;;7.28;3.30;;;28.40;35.50;;;;;;7707836;23;20443;-71
2022/05/11 10:32:04;;;;;;;8.93;3.63;;;28.50;35.50;;;;;;7673952;23;20013;-71
2022/05/11 10:35:19;;;;;;;9.00;3.08;;;28.60;35.50;;;;;;7661667;23;20364;-71
2022/05/11 10:38:40;;;;;;;5.63;2.85;;;28.60;35.50;;;;;;7684611;23;20084;-72
2022/05/11 10:41:44;;;;;;;14.32;3.20;;;28.70;35.60;;;;;;7708025;23;20024;-72
2022/05/11 10:45:04;;;;;;;10.00;3.25;;;28.80;35.50;;;;;;7645140;23;20021;-73
2022/05/11 10:48:28;;;;;;;8.15;3.50;;;28.90;35.30;;;;;;7666041;23;20080;-72
2022/05/11 10:52:06;;;;;;;4.80;2.90;;;29.00;34.90;;;;;;7669079;23;20017;-74
2022/05/11 10:55:25;;;;;;;13.07;3.95;;;29.30;34.10;;;;;;7705830;23;20069;-72
2022/05/11 10:58:47;;;;;;;5.90;2.97;;;30.40;32.70;;;;;;7668164;23;20023;-74
2022/05/11 11:01:51;;;;;;;9.18;3.83;;;31.20;31.00;;;;;;7679813;23;20016;-73
2022/05/11 11:04:51;;;;;;;5.80;3.22;;;32.00;30.00;;;;;;7708162;23;20017;-70
2022/05/11 11:08:10;;;;;;;18.77;2.95;;;32.70;29.30;;;;;;7656327;23;20439;-71
2022/05/11 11:11:26;;;;;;;4.63;2.47;;;33.30;28.70;;;;;;7679918;23;20021;-70
2022/05/11 11:14:33;;;;;;;5.55;2.50;;;33.90;28.00;;;;;;7677354;23;20308;-70
2022/05/11 11:17:35;;;;;;;3.45;2.40;;;34.40;27.40;;;;;;7705996;23;20016;-70
2022/05/11 11:20:39;;;;;;;5.88;2.70;;;34.80;26.90;;;;;;7690341;23;20039;-73
2022/05/11 11:23:43;;;;;;;3.63;2.53;;;35.10;26.40;;;;;;7654623;23;20031;-72
2022/05/11 11:26:57;;;;;;;4.22;2.20;;;35.30;26.00;;;;;;7681674;23;20013;-72
2022/05/11 11:30:16;;;;;;;4.03;2.63;;;35.40;25.70;;;;;;7707982;23;20028;-72
2022/05/11 11:33:23;;;;;;;5.65;2.33;;;35.60;25.50;;;;;;7656575;23;20277;-71
2022/05/11 11:36:31;;;;;;;6.17;2.40;;;35.70;25.40;;;;;;7709359;23;20013;-71
2022/05/11 11:39:44;;;;;;;4.85;2.33;;;35.80;25.30;;;;;;7676038;23;20017;-72
2022/05/11 11:42:46;;;;;;;2.38;2.10;;;36.00;25.10;;;;;;7711805;23;20022;-71
2022/05/11 11:45:50;;;;;;;6.53;2.30;;;36.20;24.90;;;;;;7685018;23;20013;-72
2022/05/11 11:49:06;;;;;;;5.40;2.15;;;36.20;24.70;;;;;;7684213;23;20032;-71
2022/05/11 11:52:27;;;;;;;3.33;2.25;;;36.20;24.60;;;;;;7710268;23;20039;-71
2022/05/11 11:55:32;;;;;;;5.40;1.70;;;36.30;24.50;;;;;;7710826;23;20025;-71
2022/05/11 11:58:35;;;;;;;2.28;2.08;;;36.40;24.50;;;;;;7713161;23;20013;-71
2022/05/11 12:01:41;;;;;;;3.28;1.85;;;36.40;24.30;;;;;;7685431;23;20012;-72
2022/05/11 12:04:47;;;;;;;6.10;2.03;;;36.50;24.10;;;;;;7685896;23;20039;-71
2022/05/11 12:18:24;;;;;;;4.80;2.28;;;36.50;23.90;;;;;;7702985;23;20742;-72
2022/05/11 12:21:34;;;;;;;5.30;1.83;;;36.40;23.90;;;;;;7674621;23;20104;-73
2022/05/11 12:24:38;;;;;;;4.40;2.20;;;36.60;23.80;;;;;;7676772;23;20323;-72
2022/05/11 12:27:39;;;;;;;2.50;1.80;;;36.70;23.60;;;;;;7679227;23;20004;-72
2022/05/11 12:30:42;;;;;;;9.80;2.25;;;36.80;23.50;;;;;;7657354;23;20047;-72
2022/05/11 12:33:53;;;;;;;2.20;1.98;;;37.00;23.40;;;;;;7708780;23;20036;-72
2022/05/11 12:36:54;;;;;;;2.60;2.25;;;37.30;23.20;;;;;;7679745;23;20107;-72
2022/05/11 12:40:03;;;;;;;3.80;1.98;;;37.80;22.90;;;;;;7706938;23;20020;-72
2022/05/11 12:43:12;;;;;;;9.95;2.05;;;38.10;22.70;;;;;;7702104;23;20024;-73
2022/05/11 12:46:17;;;;;;;2.63;2.00;;;38.20;22.50;;;;;;7708281;23;20020;-74
2022/05/11 12:49:19;;;;;;;4.68;2.20;;;38.50;22.30;;;;;;7681449;23;20016;-72
2022/05/11 12:52:23;;;;;;;15.02;2.42;;;38.50;22.10;;;;;;7642676;23;20510;-72
2022/05/11 12:55:33;;;;;;;3.33;1.92;;;38.50;21.80;;;;;;7656919;23;20076;-71
2022/05/11 12:58:53;;;;;;;5.07;1.88;;;38.70;21.70;;;;;;7674387;23;20052;-73
2022/05/11 13:02:15;;;;;;;6.93;1.80;;;39.00;21.50;;;;;;7666622;23;20084;-74
2022/05/11 13:05:18;;;;;;;5.03;1.92;;;39.30;20.90;;;;;;7664946;23;20332;-72
2022/05/11 13:08:20;;;;;;;10.52;2.28;;;39.50;20.90;;;;;;7665907;23;20100;-72
2022/05/11 13:11:25;;;;;;;3.85;1.98;;;39.90;20.70;;;;;;7677599;23;20029;-73
2022/05/11 13:14:36;;;;;;;2.35;1.58;;;40.20;20.30;;;;;;7680189;23;20088;-72
2022/05/11 13:17:44;;;;;;;11.23;1.60;;;40.80;19.90;;;;;;7706711;23;20023;-72
2022/05/11 13:20:49;;;;;;;5.97;1.80;;;41.30;19.40;;;;;;7637406;23;20013;-72
2022/05/11 13:23:50;;;;;;;3.85;1.77;;;40.60;19.60;;;;;;7679830;23;20020;-71
2022/05/11 13:26:51;;;;;;;6.75;1.60;;;39.60;20.30;;;;;;7680652;23;20016;-72
2022/05/11 13:30:13;;;;;;;5.65;1.75;;;38.60;21.00;;;;;;7656217;23;20275;-72
2022/05/11 13:33:32;;;;;;;11.90;2.03;;;38.40;21.20;;;;;;7667815;23;20021;-72
2022/05/11 13:36:44;;;;;;;5.53;2.05;;;38.20;21.10;;;;;;7667042;23;20039;-71
2022/05/11 13:39:49;;;;;;;5.40;2.00;;;37.40;21.90;;;;;;7669704;23;20405;-70
2022/05/11 13:42:49;;;;;;;6.70;1.85;;;36.80;22.40;;;;;;7668546;23;20017;-71
2022/05/11 13:46:00;;;;;;;7.32;1.70;;;36.90;22.50;;;;;;7669175;23;20036;-71
2022/05/11 13:49:27;;;;;;;4.15;1.60;;;37.90;21.70;;;;;;7667811;23;20005;-71
2022/05/11 13:52:48;;;;;;;2.38;1.70;;;37.60;21.80;;;;;;7670330;23;20379;-71
2022/05/11 13:56:21;;;;;;;3.13;1.55;;;37.10;22.30;;;;;;7666377;23;20028;-71
2022/05/11 13:59:24;;;;;;;3.15;1.95;;;36.50;22.60;;;;;;7669182;23;20022;-69
2022/05/11 14:02:31;;;;;;;6.70;1.80;;;36.40;22.80;;;;;;7667653;23;20013;-70
2022/05/11 14:05:32;;;;;;;2.83;1.87;;;37.00;22.60;;;;;;7667390;23;20017;-70
2022/05/11 14:08:34;;;;;;;4.72;1.85;;;38.40;21.70;;;;;;7667470;23;20020;-70
2022/05/11 14:11:34;;;;;;;5.43;1.65;;;39.80;20.60;;;;;;7683668;23;20020;-70
2022/05/11 14:14:36;;;;;;;3.90;1.70;;;40.80;20.00;;;;;;7682902;23;20004;-71
2022/05/11 14:17:44;;;;;;;7.43;1.98;;;41.70;19.30;;;;;;7681839;23;20017;-71
2022/05/11 14:20:46;;;;;;;4.78;1.90;;;42.40;18.90;;;;;;7657746;23;20016;-70
2022/05/11 14:23:47;;;;;;;4.72;1.95;;;43.10;18.50;;;;;;7634218;23;20025;-71
2022/05/11 14:26:48;;;;;;;4.05;1.88;;;43.60;18.00;;;;;;7671374;23;20396;-72
2022/05/11 14:29:49;;;;;;;3.67;1.63;;;44.00;17.70;;;;;;7644604;23;20029;-71
2022/05/11 14:32:50;;;;;;;5.00;2.00;;;44.20;17.50;;;;;;7669104;23;20463;-71
2022/05/11 14:35:52;;;;;;;4.00;1.88;;;44.30;17.50;;;;;;7644364;23;20111;-72
2022/05/11 14:38:53;;;;;;;8.50;1.88;;;44.10;17.40;;;;;;7643619;23;20099;-72
2022/05/11 14:41:55;;;;;;;4.80;1.70;;;44.10;17.30;;;;;;7641055;23;20021;-73
2022/05/11 14:44:55;;;;;;;3.67;2.03;;;43.90;17.30;;;;;;7643626;23;20414;-71
2022/05/11 14:48:02;;;;;;;4.90;1.70;;;43.20;17.60;;;;;;7644629;23;20091;-71
2022/05/11 14:51:06;;;;;;;5.70;2.10;;;41.70;18.30;;;;;;7619413;23;20009;-71
2022/05/11 14:54:11;;;;;;;5.28;1.80;;;40.20;19.40;;;;;;7671587;23;20450;-71
2022/05/11 15:03:53;;;;;;;7.05;2.30;;;37.00;22.00;;;;;;7664116;23;20405;-71
2022/05/11 15:06:54;;;;;;;4.30;2.10;;;36.30;22.70;;;;;;7665392;23;20017;-72
2022/05/11 15:09:56;;;;;;;3.33;1.90;;;35.60;23.10;;;;;;7671535;23;20017;-70
2022/05/11 15:16:19;;;;;;;3.55;1.90;;;34.60;24.10;;;;;;7632597;23;20021;-71
2022/05/11 15:19:20;;;;;;;4.28;2.10;;;34.40;24.50;;;;;;7657587;23;20033;-71
2022/05/11 15:22:21;;;;;;;2.55;1.77;;;35.10;24.00;;;;;;7658788;23;20021;-71
2022/05/11 15:25:22;;;;;;;2.65;1.73;;;36.60;22.90;;;;;;7632126;23;20021;-71
2022/05/11 15:28:23;;;;;;;3.00;1.77;;;38.10;21.70;;;;;;7635082;23;20013;-70
2022/05/11 15:31:25;;;;;;;2.83;2.03;;;39.40;20.90;;;;;;7635584;23;20013;-71
2022/05/11 15:34:30;;;;;;;5.47;2.50;;;40.30;20.10;;;;;;7658372;23;20047;-72
2022/05/11 15:37:33;;;;;;;3.47;1.90;;;41.00;19.40;;;;;;7635117;23;20029;-72
2022/05/11 15:40:37;;;;;;;4.32;1.63;;;41.60;19.10;;;;;;7651801;23;20394;-70
2022/05/11 15:43:38;;;;;;;3.33;1.70;;;42.20;18.50;;;;;;7635206;23;20025;-71
2022/05/11 15:46:39;;;;;;;4.45;1.73;;;42.70;18.10;;;;;;7636712;23;20266;-71
2022/05/11 15:49:43;;;;;;;2.95;1.73;;;43.20;17.80;;;;;;7636523;23;20092;-71
2022/05/11 15:52:55;;;;;;;4.88;1.75;;;43.30;17.50;;;;;;7671271;23;20377;-71
2022/05/11 15:55:56;;;;;;;1.88;1.65;;;43.50;17.30;;;;;;7634711;23;20093;-71
2022/05/11 15:58:57;;;;;;;3.53;2.03;;;43.50;17.10;;;;;;7636691;23;20056;-71
2022/05/11 16:01:58;;;;;;;2.47;1.52;;;43.40;17.00;;;;;;7637194;23;20100;-71
2022/05/11 16:05:00;;;;;;;1.77;1.52;;;43.30;17.00;;;;;;7635032;23;20308;-71
2022/05/11 16:08:00;;;;;;;2.40;1.63;;;43.50;17.10;;;;;;7621451;23;20118;-71
2022/05/11 16:11:03;;;;;;;2.13;1.42;;;43.70;16.80;;;;;;7619407;23;20305;-73
2022/05/11 16:14:06;;;;;;;2.58;1.55;;;43.60;16.80;;;;;;7612206;23;20017;-71
2022/05/11 16:20:27;;;;;;;3.10;1.70;;;42.80;17.00;;;;;;7637940;23;20021;-71
2022/05/11 16:23:28;;;;;;;2.85;1.50;;;42.40;17.10;;;;;;7613839;23;20029;-72
2022/05/11 16:26:29;;;;;;;2.65;1.70;;;42.00;17.20;;;;;;7636822;23;20040;-72
2022/05/11 16:29:31;;;;;;;5.05;1.60;;;41.50;17.50;;;;;;7638287;23;20093;-72
2022/05/11 16:32:32;;;;;;;1.60;1.20;;;41.30;17.70;;;;;;7586950;23;20031;-72
2022/05/11 16:35:33;;;;;;;2.75;1.60;;;41.20;17.80;;;;;;7637296;23;20038;-71
2022/05/11 16:38:34;;;;;;;4.60;1.70;;;40.70;17.90;;;;;;7609866;23;20076;-70
2022/05/11 16:41:36;;;;;;;4.07;1.70;;;39.60;18.60;;;;;;7613114;23;20339;-70
2022/05/11 16:44:37;;;;;;;8.98;2.45;;;38.30;19.40;;;;;;7583364;23;20372;-71
2022/05/11 16:47:38;;;;;;;6.78;2.38;;;37.10;20.20;;;;;;7611394;23;20024;-71
2022/05/11 16:50:39;;;;;;;8.60;2.30;;;36.10;21.00;;;;;;7612633;23;20013;-71
2022/05/11 16:53:41;;;;;;;3.42;1.50;;;35.20;21.70;;;;;;7661009;23;20017;-71
2022/05/11 16:56:42;;;;;;;8.55;1.85;;;34.60;22.30;;;;;;7612129;23;20087;-70